FIN329 ENBR-EKCH
Flight info
| Callsign | FIN329 |
|---|---|
| Flight time | 1h 13m |
| Altitude | 37000 |
| Route | TUXIL DCT ZOL DCT TESPI |
| Aircraft | A320/M-SDE3FGHIRWY/LB1 |
Departure
| Time | 2026-05-08 08:28 |
|---|---|
| Airport | Bergen Airport, Flesland (ENBR) |
Arrival
| Time | 2026-05-08 09:41 |
|---|---|
| Airport | Copenhagen Kastrup Airport (EKCH) |
| Time | Latitude | Longitude | Altitude | Speed | Heading |
|---|---|---|---|---|---|
| 2026-05-08 07:57 | 60.28932 | 5.22540 | 152 ft | 0 kts | 116° |
| 2026-05-08 08:18 | 60.28939 | 5.22507 | 151 ft | 4 kts | 110° |
| 2026-05-08 08:18 | 60.28946 | 5.22455 | 151 ft | 4 kts | 93° |
| 2026-05-08 08:18 | 60.28943 | 5.22407 | 151 ft | 4 kts | 46° |
| 2026-05-08 08:18 | 60.28933 | 5.22394 | 151 ft | 0 kts | 350° |
| 2026-05-08 08:20 | 60.28936 | 5.22393 | 151 ft | 2 kts | 351° |
| 2026-05-08 08:21 | 60.28957 | 5.22387 | 151 ft | 5 kts | 351° |
| 2026-05-08 08:21 | 60.29002 | 5.22374 | 151 ft | 8 kts | 352° |
| 2026-05-08 08:21 | 60.29064 | 5.22352 | 152 ft | 9 kts | 340° |
| 2026-05-08 08:21 | 60.29088 | 5.22249 | 152 ft | 8 kts | 295° |
| 2026-05-08 08:22 | 60.29133 | 5.22209 | 152 ft | 8 kts | 349° |
| 2026-05-08 08:22 | 60.29191 | 5.22191 | 153 ft | 9 kts | 352° |
| 2026-05-08 08:22 | 60.29244 | 5.22171 | 153 ft | 7 kts | 350° |
| 2026-05-08 08:22 | 60.29301 | 5.22152 | 154 ft | 11 kts | 350° |
| 2026-05-08 08:23 | 60.29369 | 5.22128 | 155 ft | 10 kts | 350° |
| 2026-05-08 08:23 | 60.29447 | 5.22103 | 155 ft | 14 kts | 351° |
| 2026-05-08 08:23 | 60.29566 | 5.22063 | 156 ft | 17 kts | 351° |
| 2026-05-08 08:23 | 60.29676 | 5.22025 | 157 ft | 15 kts | 350° |
| 2026-05-08 08:24 | 60.29805 | 5.21980 | 158 ft | 22 kts | 350° |
| 2026-05-08 08:24 | 60.29951 | 5.21932 | 159 ft | 20 kts | 351° |
| 2026-05-08 08:24 | 60.30081 | 5.21889 | 161 ft | 18 kts | 351° |
| 2026-05-08 08:24 | 60.30217 | 5.21843 | 162 ft | 21 kts | 350° |
| 2026-05-08 08:25 | 60.30365 | 5.21793 | 163 ft | 21 kts | 350° |
| 2026-05-08 08:25 | 60.30502 | 5.21747 | 164 ft | 19 kts | 351° |
| 2026-05-08 08:25 | 60.30617 | 5.21708 | 165 ft | 12 kts | 350° |
| 2026-05-08 08:25 | 60.30661 | 5.21643 | 166 ft | 3 kts | 291° |
| 2026-05-08 08:26 | 60.30664 | 5.21611 | 166 ft | 1 kts | 271° |
| 2026-05-08 08:26 | 60.30663 | 5.21597 | 166 ft | 3 kts | 265° |
| 2026-05-08 08:26 | 60.30659 | 5.21519 | 166 ft | 5 kts | 263° |
| 2026-05-08 08:26 | 60.30650 | 5.21445 | 168 ft | 6 kts | 255° |
| 2026-05-08 08:27 | 60.30640 | 5.21387 | 168 ft | 3 kts | 230° |
| 2026-05-08 08:27 | 60.30624 | 5.21388 | 168 ft | 0 kts | 176° |
| 2026-05-08 08:27 | 60.30623 | 5.21388 | 168 ft | 0 kts | 176° |
| 2026-05-08 08:27 | 60.30490 | 5.21430 | 163 ft | 54 kts | 171° |
| 2026-05-08 08:28 | 60.29897 | 5.21631 | 161 ft | 115 kts | 171° |
| 2026-05-08 08:28 | 60.28986 | 5.21937 | 420 ft | 137 kts | 171° |
| 2026-05-08 08:28 | 60.28043 | 5.22247 | 1119 ft | 137 kts | 171° |
| 2026-05-08 08:28 | 60.27083 | 5.22557 | 1688 ft | 149 kts | 171° |
| 2026-05-08 08:29 | 60.25983 | 5.22907 | 2022 ft | 171 kts | 171° |
| 2026-05-08 08:29 | 60.24717 | 5.23318 | 2283 ft | 198 kts | 171° |
| 2026-05-08 08:29 | 60.23274 | 5.23797 | 2732 ft | 221 kts | 171° |
| 2026-05-08 08:29 | 60.21707 | 5.24326 | 3446 ft | 230 kts | 170° |
| 2026-05-08 08:30 | 60.20140 | 5.24862 | 4425 ft | 232 kts | 171° |
| 2026-05-08 08:30 | 60.18528 | 5.25407 | 5275 ft | 238 kts | 172° |
| 2026-05-08 08:30 | 60.15166 | 5.26530 | 6905 ft | 249 kts | 173° |
| 2026-05-08 08:31 | 60.13431 | 5.27108 | 7679 ft | 255 kts | 173° |
| 2026-05-08 08:31 | 60.11683 | 5.27690 | 8447 ft | 260 kts | 173° |
| 2026-05-08 08:31 | 60.09885 | 5.28293 | 9270 ft | 264 kts | 174° |
| 2026-05-08 08:31 | 60.08063 | 5.28875 | 10114 ft | 266 kts | 175° |
| 2026-05-08 08:32 | 60.06193 | 5.29392 | 10626 ft | 280 kts | 176° |
| 2026-05-08 08:32 | 60.04181 | 5.29902 | 10862 ft | 304 kts | 176° |
| 2026-05-08 08:32 | 60.02002 | 5.30446 | 11153 ft | 322 kts | 176° |
| 2026-05-08 08:32 | 59.99768 | 5.31025 | 11780 ft | 327 kts | 175° |
| 2026-05-08 08:33 | 59.97499 | 5.31630 | 12476 ft | 332 kts | 175° |
| 2026-05-08 08:33 | 59.95181 | 5.32254 | 13174 ft | 336 kts | 175° |
| 2026-05-08 08:33 | 59.92846 | 5.32882 | 13868 ft | 340 kts | 175° |
| 2026-05-08 08:33 | 59.90516 | 5.33507 | 14482 ft | 344 kts | 175° |
| 2026-05-08 08:34 | 59.88119 | 5.34146 | 15129 ft | 347 kts | 175° |
| 2026-05-08 08:34 | 59.86442 | 5.34593 | 15582 ft | 349 kts | 175° |
| 2026-05-08 08:34 | 59.85348 | 5.34883 | 15877 ft | 350 kts | 175° |
| 2026-05-08 08:34 | 59.83462 | 5.35385 | 16381 ft | 352 kts | 175° |
| 2026-05-08 08:35 | 59.82193 | 5.35723 | 16702 ft | 354 kts | 175° |
| 2026-05-08 08:35 | 59.81712 | 5.35851 | 16827 ft | 354 kts | 175° |
| 2026-05-08 08:35 | 59.79253 | 5.36487 | 17451 ft | 357 kts | 176° |
| 2026-05-08 08:35 | 59.76773 | 5.36995 | 18074 ft | 359 kts | 177° |
| 2026-05-08 08:36 | 59.74306 | 5.37397 | 18621 ft | 362 kts | 178° |
| 2026-05-08 08:36 | 59.71763 | 5.37768 | 19158 ft | 365 kts | 178° |
| 2026-05-08 08:36 | 59.70156 | 5.37999 | 19499 ft | 366 kts | 178° |
| 2026-05-08 08:36 | 59.68508 | 5.38241 | 19849 ft | 368 kts | 178° |
| 2026-05-08 08:37 | 59.65939 | 5.38635 | 20389 ft | 371 kts | 178° |
| 2026-05-08 08:37 | 59.63352 | 5.39080 | 20936 ft | 374 kts | 177° |
| 2026-05-08 08:37 | 59.60773 | 5.39662 | 21432 ft | 377 kts | 175° |
| 2026-05-08 08:37 | 59.58166 | 5.40337 | 21943 ft | 380 kts | 175° |
| 2026-05-08 08:38 | 59.55524 | 5.41059 | 22435 ft | 383 kts | 175° |
| 2026-05-08 08:38 | 59.52873 | 5.41788 | 22923 ft | 385 kts | 175° |
| 2026-05-08 08:38 | 59.50230 | 5.42497 | 23389 ft | 388 kts | 175° |
| 2026-05-08 08:38 | 59.47536 | 5.43194 | 23812 ft | 391 kts | 175° |
| 2026-05-08 08:39 | 59.44814 | 5.43882 | 24181 ft | 394 kts | 175° |
| 2026-05-08 08:39 | 59.42086 | 5.44560 | 24558 ft | 396 kts | 175° |
| 2026-05-08 08:39 | 59.39346 | 5.45263 | 24933 ft | 398 kts | 174° |
| 2026-05-08 08:39 | 59.36641 | 5.46117 | 25298 ft | 400 kts | 173° |
| 2026-05-08 08:40 | 59.33899 | 5.47118 | 25655 ft | 402 kts | 172° |
| 2026-05-08 08:40 | 59.31121 | 5.48198 | 26015 ft | 404 kts | 171° |
| 2026-05-08 08:40 | 59.28360 | 5.49276 | 26367 ft | 406 kts | 171° |
| 2026-05-08 08:40 | 59.25588 | 5.50340 | 26716 ft | 407 kts | 172° |
| 2026-05-08 08:41 | 59.22781 | 5.51391 | 27052 ft | 409 kts | 172° |
| 2026-05-08 08:41 | 59.20021 | 5.52402 | 27369 ft | 410 kts | 172° |
| 2026-05-08 08:41 | 59.17188 | 5.53424 | 27669 ft | 413 kts | 172° |
| 2026-05-08 08:41 | 59.14386 | 5.54426 | 27970 ft | 414 kts | 172° |
| 2026-05-08 08:42 | 59.11524 | 5.55445 | 28276 ft | 416 kts | 172° |
| 2026-05-08 08:42 | 59.08651 | 5.56468 | 28576 ft | 418 kts | 172° |
| 2026-05-08 08:42 | 59.05824 | 5.57476 | 28869 ft | 419 kts | 172° |
| 2026-05-08 08:42 | 59.02946 | 5.58506 | 29136 ft | 421 kts | 172° |
| 2026-05-08 08:43 | 59.00060 | 5.59538 | 29404 ft | 422 kts | 172° |
| 2026-05-08 08:43 | 58.97165 | 5.60572 | 29680 ft | 423 kts | 172° |
| 2026-05-08 08:43 | 58.94254 | 5.61612 | 29926 ft | 425 kts | 172° |
| 2026-05-08 08:43 | 58.91388 | 5.62744 | 30181 ft | 427 kts | 167° |
| 2026-05-08 08:44 | 58.88542 | 5.64713 | 30456 ft | 429 kts | 158° |
| 2026-05-08 08:44 | 58.87971 | 5.65242 | 30516 ft | 429 kts | 155° |
| 2026-05-08 08:44 | 58.86478 | 5.66864 | 30682 ft | 431 kts | 150° |
| 2026-05-08 08:44 | 58.84074 | 5.70353 | 30984 ft | 433 kts | 141° |
| 2026-05-08 08:45 | 58.81882 | 5.74360 | 31289 ft | 433 kts | 140° |
| 2026-05-08 08:45 | 58.79695 | 5.78379 | 31598 ft | 431 kts | 140° |
| 2026-05-08 08:45 | 58.77552 | 5.82303 | 31901 ft | 430 kts | 140° |
| 2026-05-08 08:45 | 58.75384 | 5.86258 | 32208 ft | 429 kts | 140° |
| 2026-05-08 08:46 | 58.73212 | 5.90208 | 32497 ft | 427 kts | 140° |
| 2026-05-08 08:46 | 58.71057 | 5.94124 | 32803 ft | 426 kts | 140° |
| 2026-05-08 08:46 | 58.68893 | 5.98050 | 33114 ft | 424 kts | 141° |
| 2026-05-08 08:46 | 58.66771 | 6.01897 | 33428 ft | 423 kts | 141° |
| 2026-05-08 08:47 | 58.64625 | 6.05783 | 33766 ft | 421 kts | 141° |
| 2026-05-08 08:47 | 58.62487 | 6.09646 | 34092 ft | 420 kts | 141° |
| 2026-05-08 08:47 | 58.60355 | 6.13489 | 34375 ft | 419 kts | 141° |
| 2026-05-08 08:47 | 58.58250 | 6.17278 | 34598 ft | 419 kts | 141° |
| 2026-05-08 08:48 | 58.56123 | 6.21102 | 34798 ft | 420 kts | 141° |
| 2026-05-08 08:48 | 58.53989 | 6.24929 | 34971 ft | 421 kts | 141° |
| 2026-05-08 08:48 | 58.51842 | 6.28766 | 35094 ft | 423 kts | 141° |
| 2026-05-08 08:48 | 58.49705 | 6.32575 | 35253 ft | 424 kts | 141° |
| 2026-05-08 08:49 | 58.47533 | 6.36454 | 35425 ft | 425 kts | 141° |
| 2026-05-08 08:49 | 58.45368 | 6.40316 | 35594 ft | 426 kts | 141° |
| 2026-05-08 08:49 | 58.43190 | 6.44197 | 35762 ft | 427 kts | 141° |
| 2026-05-08 08:49 | 58.41035 | 6.48028 | 35927 ft | 427 kts | 141° |
| 2026-05-08 08:50 | 58.38847 | 6.51905 | 36089 ft | 428 kts | 141° |
| 2026-05-08 08:50 | 58.36661 | 6.55767 | 36254 ft | 429 kts | 141° |
| 2026-05-08 08:50 | 58.32268 | 6.63541 | 36253 ft | 435 kts | 141° |
| 2026-05-08 08:51 | 58.30044 | 6.67465 | 36545 ft | 432 kts | 141° |
| 2026-05-08 08:51 | 58.27840 | 6.71328 | 36747 ft | 431 kts | 141° |
| 2026-05-08 08:51 | 58.25635 | 6.75177 | 36895 ft | 431 kts | 141° |
| 2026-05-08 08:51 | 58.23418 | 6.79039 | 37043 ft | 432 kts | 141° |
| 2026-05-08 08:52 | 58.21208 | 6.82893 | 37192 ft | 432 kts | 140° |
| 2026-05-08 08:52 | 58.18991 | 6.86756 | 37245 ft | 434 kts | 140° |
| 2026-05-08 08:52 | 58.14551 | 6.94493 | 37250 ft | 436 kts | 140° |
| 2026-05-08 08:53 | 58.10075 | 7.02259 | 37250 ft | 436 kts | 141° |
| 2026-05-08 08:53 | 58.05811 | 7.09617 | 37255 ft | 436 kts | 141° |
| 2026-05-08 08:54 | 58.01607 | 7.16850 | 37255 ft | 436 kts | 141° |
| 2026-05-08 08:54 | 57.97588 | 7.23751 | 37258 ft | 436 kts | 141° |
| 2026-05-08 08:55 | 57.93409 | 7.30901 | 37260 ft | 436 kts | 141° |
| 2026-05-08 08:55 | 57.88961 | 7.38479 | 37246 ft | 437 kts | 141° |
| 2026-05-08 08:56 | 57.85032 | 7.45143 | 37253 ft | 437 kts | 141° |
| 2026-05-08 08:56 | 57.80948 | 7.52037 | 37256 ft | 437 kts | 141° |
| 2026-05-08 08:57 | 57.79429 | 7.54598 | 37258 ft | 437 kts | 141° |
| 2026-05-08 08:57 | 57.77353 | 7.58100 | 37260 ft | 437 kts | 141° |
| 2026-05-08 08:58 | 57.72837 | 7.65710 | 37264 ft | 437 kts | 141° |
| 2026-05-08 08:58 | 57.68298 | 7.73325 | 37263 ft | 437 kts | 141° |
| 2026-05-08 08:59 | 57.63787 | 7.80863 | 37267 ft | 437 kts | 141° |
| 2026-05-08 08:59 | 57.59236 | 7.88438 | 37253 ft | 438 kts | 141° |
| 2026-05-08 09:00 | 57.55452 | 7.94716 | 37258 ft | 438 kts | 141° |
| 2026-05-08 09:00 | 57.50881 | 8.02286 | 37267 ft | 438 kts | 141° |
| 2026-05-08 09:01 | 57.46336 | 8.09786 | 37269 ft | 438 kts | 141° |
| 2026-05-08 09:01 | 57.42634 | 8.15875 | 37265 ft | 439 kts | 141° |
| 2026-05-08 09:02 | 57.38545 | 8.22588 | 37272 ft | 439 kts | 141° |
| 2026-05-08 09:02 | 57.35443 | 8.27639 | 37274 ft | 438 kts | 141° |
| 2026-05-08 09:03 | 57.30865 | 8.35100 | 37270 ft | 438 kts | 141° |
| 2026-05-08 09:03 | 57.27244 | 8.41000 | 37259 ft | 439 kts | 141° |
| 2026-05-08 09:04 | 57.25253 | 8.44234 | 37262 ft | 439 kts | 141° |
| 2026-05-08 09:04 | 57.22959 | 8.47955 | 37265 ft | 439 kts | 141° |
| 2026-05-08 09:05 | 57.19475 | 8.53581 | 37265 ft | 439 kts | 141° |
| 2026-05-08 09:05 | 57.14859 | 8.60990 | 37274 ft | 439 kts | 141° |
| 2026-05-08 09:06 | 57.10546 | 8.67904 | 37276 ft | 439 kts | 141° |
| 2026-05-08 09:06 | 57.06823 | 8.73877 | 37269 ft | 439 kts | 141° |
| 2026-05-08 09:07 | 57.02240 | 8.81202 | 37269 ft | 439 kts | 141° |
| 2026-05-08 09:07 | 56.99927 | 8.84876 | 37119 ft | 440 kts | 141° |
| 2026-05-08 09:07 | 56.97635 | 8.88531 | 37246 ft | 436 kts | 141° |
| 2026-05-08 09:08 | 56.93019 | 8.95836 | 37262 ft | 440 kts | 141° |
| 2026-05-08 09:08 | 56.89132 | 9.01956 | 37278 ft | 440 kts | 141° |
| 2026-05-08 09:09 | 56.86420 | 9.06228 | 37272 ft | 439 kts | 141° |
| 2026-05-08 09:09 | 56.81777 | 9.13511 | 37268 ft | 439 kts | 141° |
| 2026-05-08 09:10 | 56.77142 | 9.20779 | 37271 ft | 439 kts | 141° |
| 2026-05-08 09:10 | 56.72520 | 9.27998 | 37276 ft | 439 kts | 141° |
| 2026-05-08 09:11 | 56.67874 | 9.35226 | 37255 ft | 439 kts | 141° |
| 2026-05-08 09:11 | 56.63223 | 9.42437 | 37254 ft | 439 kts | 141° |
| 2026-05-08 09:12 | 56.58551 | 9.49656 | 37255 ft | 439 kts | 141° |
| 2026-05-08 09:12 | 56.53888 | 9.56852 | 37265 ft | 440 kts | 141° |
| 2026-05-08 09:13 | 56.49220 | 9.64025 | 37263 ft | 440 kts | 141° |
| 2026-05-08 09:13 | 56.44449 | 9.71307 | 37264 ft | 440 kts | 141° |
| 2026-05-08 09:14 | 56.39869 | 9.78277 | 37265 ft | 440 kts | 141° |
| 2026-05-08 09:14 | 56.35184 | 9.85385 | 37254 ft | 440 kts | 141° |
| 2026-05-08 09:15 | 56.30422 | 9.92600 | 37269 ft | 440 kts | 141° |
| 2026-05-08 09:15 | 56.25751 | 9.99658 | 36948 ft | 440 kts | 141° |
| 2026-05-08 09:16 | 56.23404 | 10.03197 | 36676 ft | 439 kts | 141° |
| 2026-05-08 09:16 | 56.21065 | 10.06717 | 36368 ft | 437 kts | 141° |
| 2026-05-08 09:16 | 56.18746 | 10.10199 | 35596 ft | 438 kts | 141° |
| 2026-05-08 09:16 | 56.16406 | 10.13708 | 34804 ft | 438 kts | 140° |
| 2026-05-08 09:17 | 56.14066 | 10.17209 | 33896 ft | 439 kts | 140° |
| 2026-05-08 09:17 | 56.11713 | 10.20719 | 32985 ft | 438 kts | 140° |
| 2026-05-08 09:17 | 56.09370 | 10.24209 | 32078 ft | 437 kts | 140° |
| 2026-05-08 09:17 | 56.07022 | 10.27698 | 31127 ft | 439 kts | 140° |
| 2026-05-08 09:18 | 56.04692 | 10.31159 | 30238 ft | 439 kts | 140° |
| 2026-05-08 09:18 | 56.02355 | 10.34631 | 29662 ft | 431 kts | 140° |
| 2026-05-08 09:18 | 56.00062 | 10.38030 | 29026 ft | 425 kts | 140° |
| 2026-05-08 09:18 | 55.97842 | 10.41406 | 28410 ft | 421 kts | 135° |
| 2026-05-08 09:19 | 55.96053 | 10.45493 | 27745 ft | 418 kts | 120° |
| 2026-05-08 09:19 | 55.94980 | 10.50250 | 27101 ft | 416 kts | 104° |
| 2026-05-08 09:19 | 55.94523 | 10.54955 | 26490 ft | 414 kts | 99° |
| 2026-05-08 09:19 | 55.94135 | 10.59486 | 25925 ft | 413 kts | 99° |
| 2026-05-08 09:20 | 55.93741 | 10.64173 | 25352 ft | 410 kts | 99° |
| 2026-05-08 09:20 | 55.93374 | 10.68521 | 24850 ft | 408 kts | 99° |
| 2026-05-08 09:20 | 55.92974 | 10.73211 | 24307 ft | 405 kts | 99° |
| 2026-05-08 09:20 | 55.92559 | 10.78019 | 23743 ft | 403 kts | 100° |
| 2026-05-08 09:21 | 55.92128 | 10.82956 | 23112 ft | 401 kts | 100° |
| 2026-05-08 09:21 | 55.91697 | 10.87839 | 22542 ft | 397 kts | 99° |
| 2026-05-08 09:22 | 55.89149 | 11.16257 | 19518 ft | 380 kts | 100° |
| 2026-05-08 09:23 | 55.88729 | 11.20890 | 19033 ft | 377 kts | 100° |
| 2026-05-08 09:23 | 55.88309 | 11.25495 | 18561 ft | 375 kts | 100° |
| 2026-05-08 09:23 | 55.87890 | 11.30081 | 18036 ft | 372 kts | 100° |
| 2026-05-08 09:23 | 55.87475 | 11.34612 | 17530 ft | 369 kts | 100° |
| 2026-05-08 09:24 | 55.87066 | 11.39055 | 17055 ft | 365 kts | 100° |
| 2026-05-08 09:24 | 55.86655 | 11.43500 | 16589 ft | 362 kts | 101° |
| 2026-05-08 09:24 | 55.86245 | 11.47915 | 16121 ft | 358 kts | 100° |
| 2026-05-08 09:24 | 55.85838 | 11.52275 | 15652 ft | 356 kts | 100° |
| 2026-05-08 09:25 | 55.85432 | 11.56604 | 15207 ft | 353 kts | 101° |
| 2026-05-08 09:25 | 55.85025 | 11.60912 | 14768 ft | 350 kts | 101° |
| 2026-05-08 09:25 | 55.84625 | 11.65174 | 14327 ft | 347 kts | 101° |
| 2026-05-08 09:25 | 55.84226 | 11.69395 | 13882 ft | 345 kts | 101° |
| 2026-05-08 09:26 | 55.83827 | 11.73582 | 13417 ft | 342 kts | 101° |
| 2026-05-08 09:26 | 55.83438 | 11.77674 | 12949 ft | 338 kts | 101° |
| 2026-05-08 09:26 | 55.83047 | 11.81782 | 12479 ft | 335 kts | 101° |
| 2026-05-08 09:26 | 55.82656 | 11.85858 | 12007 ft | 331 kts | 101° |
| 2026-05-08 09:27 | 55.82267 | 11.89894 | 11526 ft | 328 kts | 101° |
| 2026-05-08 09:27 | 55.81879 | 11.93878 | 11074 ft | 324 kts | 101° |
| 2026-05-08 09:27 | 55.81492 | 11.97824 | 10614 ft | 321 kts | 101° |
| 2026-05-08 09:27 | 55.81114 | 12.01651 | 10352 ft | 312 kts | 101° |
| 2026-05-08 09:28 | 55.80745 | 12.05376 | 10225 ft | 300 kts | 101° |
| 2026-05-08 09:28 | 55.80391 | 12.08964 | 10092 ft | 288 kts | 101° |
| 2026-05-08 09:28 | 55.80052 | 12.12404 | 9940 ft | 276 kts | 101° |
| 2026-05-08 09:28 | 55.79723 | 12.15732 | 9696 ft | 270 kts | 101° |
| 2026-05-08 09:29 | 55.79402 | 12.18969 | 9338 ft | 268 kts | 101° |
| 2026-05-08 09:29 | 55.79082 | 12.22210 | 8944 ft | 266 kts | 101° |
| 2026-05-08 09:29 | 55.78760 | 12.25448 | 8570 ft | 264 kts | 101° |
| 2026-05-08 09:29 | 55.78439 | 12.28657 | 8199 ft | 263 kts | 101° |
| 2026-05-08 09:30 | 55.78119 | 12.31853 | 7825 ft | 261 kts | 100° |
| 2026-05-08 09:30 | 55.77802 | 12.35019 | 7435 ft | 259 kts | 100° |
| 2026-05-08 09:30 | 55.77484 | 12.38175 | 7060 ft | 258 kts | 100° |
| 2026-05-08 09:30 | 55.77173 | 12.41257 | 6679 ft | 256 kts | 100° |
| 2026-05-08 09:31 | 55.76857 | 12.44363 | 6264 ft | 255 kts | 100° |
| 2026-05-08 09:31 | 55.76542 | 12.47452 | 5878 ft | 253 kts | 99° |
| 2026-05-08 09:31 | 55.76226 | 12.50519 | 5483 ft | 252 kts | 99° |
| 2026-05-08 09:31 | 55.75912 | 12.53565 | 5087 ft | 251 kts | 99° |
| 2026-05-08 09:32 | 55.75599 | 12.56611 | 4673 ft | 250 kts | 99° |
| 2026-05-08 09:32 | 55.75310 | 12.59616 | 4287 ft | 248 kts | 94° |
| 2026-05-08 09:32 | 55.75407 | 12.62638 | 3879 ft | 245 kts | 77° |
| 2026-05-08 09:32 | 55.76024 | 12.65452 | 3444 ft | 246 kts | 61° |
| 2026-05-08 09:33 | 55.77105 | 12.67814 | 3051 ft | 247 kts | 44° |
| 2026-05-08 09:33 | 55.78413 | 12.69812 | 3002 ft | 246 kts | 43° |
| 2026-05-08 09:33 | 55.79664 | 12.71726 | 3001 ft | 228 kts | 43° |
| 2026-05-08 09:33 | 55.80865 | 12.73570 | 3009 ft | 242 kts | 43° |
| 2026-05-08 09:34 | 55.82108 | 12.75482 | 3000 ft | 227 kts | 43° |
| 2026-05-08 09:34 | 55.83274 | 12.77261 | 3001 ft | 216 kts | 43° |
| 2026-05-08 09:34 | 55.84409 | 12.79003 | 3002 ft | 214 kts | 46° |
| 2026-05-08 09:34 | 55.85172 | 12.81183 | 3000 ft | 208 kts | 79° |
| 2026-05-08 09:35 | 55.85066 | 12.83712 | 2995 ft | 204 kts | 115° |
| 2026-05-08 09:35 | 55.84230 | 12.85721 | 3002 ft | 207 kts | 133° |
| 2026-05-08 09:35 | 55.83193 | 12.87528 | 3003 ft | 208 kts | 135° |
| 2026-05-08 09:35 | 55.82028 | 12.89053 | 2998 ft | 211 kts | 158° |
| 2026-05-08 09:36 | 55.80562 | 12.89321 | 3007 ft | 216 kts | 181° |
| 2026-05-08 09:36 | 55.79059 | 12.89003 | 3007 ft | 217 kts | 185° |
| 2026-05-08 09:36 | 55.77617 | 12.88582 | 3006 ft | 204 kts | 191° |
| 2026-05-08 09:36 | 55.76349 | 12.87554 | 3003 ft | 203 kts | 212° |
| 2026-05-08 09:37 | 55.75217 | 12.86058 | 3014 ft | 201 kts | 214° |
| 2026-05-08 09:37 | 55.74110 | 12.84535 | 3040 ft | 197 kts | 215° |
| 2026-05-08 09:37 | 55.73086 | 12.83051 | 2955 ft | 185 kts | 217° |
| 2026-05-08 09:37 | 55.72123 | 12.81569 | 2677 ft | 184 kts | 218° |
| 2026-05-08 09:38 | 55.71166 | 12.80083 | 2374 ft | 177 kts | 217° |
| 2026-05-08 09:38 | 55.70276 | 12.78721 | 2141 ft | 165 kts | 217° |
| 2026-05-08 09:38 | 55.69432 | 12.77431 | 1899 ft | 155 kts | 216° |
| 2026-05-08 09:38 | 55.68627 | 12.76197 | 1668 ft | 150 kts | 217° |
| 2026-05-08 09:39 | 55.67848 | 12.74977 | 1453 ft | 148 kts | 217° |
| 2026-05-08 09:39 | 55.67082 | 12.73789 | 1261 ft | 144 kts | 218° |
| 2026-05-08 09:39 | 55.66324 | 12.72627 | 1062 ft | 146 kts | 216° |
| 2026-05-08 09:39 | 55.65814 | 12.71847 | 939 ft | 145 kts | 219° |
| 2026-05-08 09:40 | 55.64823 | 12.70275 | 667 ft | 143 kts | 218° |
| 2026-05-08 09:40 | 55.64324 | 12.69505 | 525 ft | 143 kts | 217° |
| 2026-05-08 09:40 | 55.63573 | 12.68358 | 323 ft | 142 kts | 217° |
| 2026-05-08 09:40 | 55.62833 | 12.67205 | 124 ft | 142 kts | 218° |
| 2026-05-08 09:41 | 55.62110 | 12.66090 | 19 ft | 125 kts | 221° |
| 2026-05-08 09:41 | 55.61576 | 12.65265 | 17 ft | 77 kts | 221° |
| 2026-05-08 09:41 | 55.61349 | 12.64907 | 22 ft | 31 kts | 227° |
| 2026-05-08 09:41 | 55.61258 | 12.64638 | 23 ft | 25 kts | 252° |
| 2026-05-08 09:42 | 55.61216 | 12.64408 | 20 ft | 11 kts | 252° |
| 2026-05-08 09:42 | 55.61193 | 12.64284 | 17 ft | 11 kts | 252° |
| 2026-05-08 09:42 | 55.61197 | 12.64154 | 17 ft | 11 kts | 304° |
| 2026-05-08 09:42 | 55.61258 | 12.64104 | 16 ft | 9 kts | 2° |
| 2026-05-08 09:43 | 55.61309 | 12.64146 | 19 ft | 7 kts | 33° |
| 2026-05-08 09:43 | 55.61349 | 12.64192 | 17 ft | 7 kts | 33° |
| 2026-05-08 09:43 | 55.61387 | 12.64237 | 16 ft | 7 kts | 33° |
| 2026-05-08 09:43 | 55.61425 | 12.64281 | 19 ft | 7 kts | 33° |
| 2026-05-08 09:44 | 55.61470 | 12.64332 | 20 ft | 9 kts | 33° |
| 2026-05-08 09:44 | 55.61539 | 12.64412 | 18 ft | 15 kts | 31° |
| 2026-05-08 09:44 | 55.61634 | 12.64523 | 19 ft | 18 kts | 34° |
| 2026-05-08 09:44 | 55.61743 | 12.64645 | 21 ft | 19 kts | 33° |
| 2026-05-08 09:45 | 55.61859 | 12.64779 | 20 ft | 21 kts | 32° |
| 2026-05-08 09:45 | 55.61980 | 12.64916 | 19 ft | 19 kts | 31° |
| 2026-05-08 09:45 | 55.62083 | 12.65035 | 22 ft | 17 kts | 33° |
| 2026-05-08 09:45 | 55.62170 | 12.65135 | 24 ft | 14 kts | 33° |
| 2026-05-08 09:46 | 55.62235 | 12.65167 | 25 ft | 10 kts | 334° |
| 2026-05-08 09:46 | 55.62276 | 12.65076 | 23 ft | 10 kts | 304° |
| 2026-05-08 09:46 | 55.62316 | 12.64968 | 24 ft | 10 kts | 302° |
| 2026-05-08 09:46 | 55.62352 | 12.64867 | 25 ft | 10 kts | 303° |
| 2026-05-08 09:47 | 55.62393 | 12.64755 | 22 ft | 11 kts | 303° |
| 2026-05-08 09:47 | 55.62426 | 12.64668 | 24 ft | 7 kts | 303° |
| 2026-05-08 09:47 | 55.62454 | 12.64594 | 23 ft | 7 kts | 303° |
| 2026-05-08 09:47 | 55.62484 | 12.64511 | 22 ft | 9 kts | 301° |
| 2026-05-08 09:48 | 55.62516 | 12.64421 | 21 ft | 8 kts | 303° |
| 2026-05-08 09:48 | 55.62518 | 12.64416 | 21 ft | 0 kts | 303° |
| 2026-05-08 09:48 | 55.62528 | 12.64392 | 23 ft | 5 kts | 304° |
| 2026-05-08 09:48 | 55.62552 | 12.64328 | 23 ft | 8 kts | 303° |
| 2026-05-08 09:49 | 55.62589 | 12.64260 | 23 ft | 8 kts | 343° |
| 2026-05-08 09:49 | 55.62647 | 12.64299 | 25 ft | 9 kts | 27° |
| 2026-05-08 09:49 | 55.62697 | 12.64338 | 23 ft | 5 kts | 20° |
| 2026-05-08 09:49 | 55.62722 | 12.64310 | 21 ft | 5 kts | 307° |
| 2026-05-08 09:50 | 55.62736 | 12.64271 | 22 ft | 3 kts | 301° |
| 2026-05-08 09:50 | 55.62737 | 12.64269 | 24 ft | 0 kts | 301° |